Terminal Aerodrome Forecast
Issued by NWS Blacksburg, VA

Home | Current Version | Previous Version | Text Only | Print | Product List | Glossary On
Versions: 1 2 3 4 5 6 7 8 9 10 11 12 13 14 15 16
000
FTUS41 KRNK 250617 AAA
TAFBLF
TAF AMD
KBLF 250617Z 2506/2606 06004KT 3/4SM BR VV002
     FM251000 VRB04KT 2SM -RA BR OVC008
     FM251200 29005KT 5SM BR OVC008
      TEMPO 2512/2514 2SM -SHRA BR OVC015
     FM251500 30007KT P6SM VCSH OVC007=

USA.gov is the U.S. government's official web portal to all federal, state and local government web resources and services.